Time;durP1;ratioP1;P1;durP2;ratioP2;P2;SDS_P1;SDS_P2;PMS_P1;PMS_P2;Temp;Humidity;BMP_temperature;BMP_pressure;BME280_temperature;BME280_humidity;BME280_pressure;Samples;Min_cycle;Max_cycle;Signal;HPM_P1;HPM_P2
2022/03/18 00:00:20;;;;;;;16.73;6.72;;;3.10;99.90;;;;;;5021924;28;20084;-87
2022/03/18 00:02:52;;;;;;;17.35;7.65;;;3.10;99.90;;;;;;5036678;28;20045;-88
2022/03/18 00:05:18;;;;;;;24.33;6.50;;;3.00;99.90;;;;;;5039719;28;20032;-88
2022/03/18 00:07:47;;;;;;;17.85;7.07;;;3.10;99.90;;;;;;5018813;28;20549;-86
2022/03/18 00:10:14;;;;;;;15.73;6.55;;;3.00;99.90;;;;;;5020861;28;20079;-88
2022/03/18 00:12:41;;;;;;;22.40;7.28;;;3.10;99.90;;;;;;5037150;28;20527;-88
2022/03/18 00:15:08;;;;;;;16.25;6.70;;;3.10;99.90;;;;;;5022336;28;20037;-88
2022/03/18 00:17:34;;;;;;;16.48;7.80;;;3.20;99.90;;;;;;5019965;28;20044;-88
2022/03/18 00:20:05;;;;;;;18.70;6.82;;;2.90;99.90;;;;;;5039027;28;20029;-88
2022/03/18 00:22:31;;;;;;;18.63;7.35;;;3.20;99.90;;;;;;5060061;28;20202;-88
2022/03/18 00:24:57;;;;;;;16.02;6.75;;;3.20;99.90;;;;;;5038806;28;20052;-87
2022/03/18 00:27:23;;;;;;;15.63;7.60;;;3.00;99.90;;;;;;5021016;28;20555;-88
2022/03/18 00:29:50;;;;;;;15.90;7.30;;;3.00;99.90;;;;;;5021119;28;20085;-88
2022/03/18 00:32:16;;;;;;;20.23;8.13;;;3.00;99.90;;;;;;5024319;28;20072;-88
2022/03/18 00:34:42;;;;;;;15.85;7.85;;;3.00;99.90;;;;;;5022153;28;20060;-88
2022/03/18 00:37:16;;;;;;;16.17;7.68;;;3.00;99.90;;;;;;5035439;28;20512;-89
2022/03/18 00:39:42;;;;;;;16.65;7.43;;;2.90;99.90;;;;;;5022877;28;20041;-87
2022/03/18 00:42:09;;;;;;;17.33;7.90;;;2.90;99.90;;;;;;5023033;28;20480;-87
2022/03/18 00:44:36;;;;;;;16.88;7.78;;;2.90;99.90;;;;;;5021213;28;20110;-87
2022/03/18 00:51:59;;;;;;;16.75;8.30;;;2.90;99.90;;;;;;5022722;28;20115;-88
2022/03/18 00:52:40;;;;;;;21.38;8.57;;;2.80;99.90;;;;;;5040008;28;20557;-87
2022/03/18 00:55:06;;;;;;;16.27;7.50;;;2.80;99.90;;;;;;5023440;28;20037;-88
2022/03/18 00:57:32;;;;;;;17.95;7.93;;;2.80;99.90;;;;;;5020669;28;20040;-88
2022/03/18 00:59:57;;;;;;;20.58;8.55;;;2.70;99.90;;;;;;5039006;28;20828;-87
2022/03/18 01:02:23;;;;;;;17.50;8.55;;;2.60;99.90;;;;;;5022847;28;20340;-88
2022/03/18 01:04:51;;;;;;;18.52;8.38;;;2.60;99.90;;;;;;5038564;28;20033;-89
2022/03/18 01:07:17;;;;;;;19.27;7.70;;;2.70;99.90;;;;;;5019948;28;20033;-88
2022/03/18 01:09:43;;;;;;;15.65;8.38;;;2.60;99.90;;;;;;5019241;28;20519;-89
2022/03/18 01:12:09;;;;;;;17.35;8.05;;;2.60;99.90;;;;;;5017540;28;20173;-89
2022/03/18 01:14:35;;;;;;;20.05;7.60;;;2.30;99.90;;;;;;5038599;28;20083;-87
2022/03/18 01:17:01;;;;;;;18.42;7.97;;;2.20;99.90;;;;;;5038176;28;20287;-89
2022/03/18 01:19:27;;;;;;;18.65;9.45;;;2.30;99.90;;;;;;5021290;28;20041;-89
2022/03/18 01:21:52;;;;;;;23.08;9.43;;;2.40;99.90;;;;;;5022313;28;20043;-88
2022/03/18 01:24:18;;;;;;;15.48;8.98;;;2.40;99.90;;;;;;5022799;28;20037;-89
2022/03/18 01:26:44;;;;;;;16.90;8.00;;;2.50;99.90;;;;;;5021660;28;20021;-88
2022/03/18 01:29:10;;;;;;;22.52;9.95;;;2.40;99.90;;;;;;5034953;28;20032;-88
2022/03/18 01:31:36;;;;;;;20.70;8.63;;;2.30;99.90;;;;;;5033794;28;20685;-89
2022/03/18 01:34:02;;;;;;;15.70;7.70;;;2.40;99.90;;;;;;5019823;28;20250;-88
2022/03/18 01:36:27;;;;;;;20.40;8.85;;;2.20;99.90;;;;;;5022247;28;20098;-88
2022/03/18 01:38:53;;;;;;;15.60;8.82;;;2.30;99.90;;;;;;5019301;28;20041;-88
2022/03/18 01:41:40;;;;;;;15.98;8.25;;;2.30;99.90;;;;;;5020615;28;20052;-90
2022/03/18 01:44:12;;;;;;;26.10;10.52;;;2.30;99.90;;;;;;5022589;28;20045;-88
2022/03/18 01:46:46;;;;;;;21.73;11.50;;;2.40;99.90;;;;;;5020767;28;20041;-87
2022/03/18 01:49:14;;;;;;;22.03;10.93;;;2.40;99.90;;;;;;5019046;28;20045;-88
2022/03/18 01:52:00;;;;;;;25.25;11.32;;;2.30;99.90;;;;;;5020238;28;20052;-88
2022/03/18 01:54:45;;;;;;;22.67;10.52;;;2.40;99.90;;;;;;5015862;28;20123;-88
2022/03/18 01:57:12;;;;;;;29.40;11.65;;;2.40;99.90;;;;;;5019601;28;20033;-89
2022/03/18 01:59:38;;;;;;;25.05;11.57;;;2.40;99.90;;;;;;5050622;28;20104;-87
2022/03/18 02:02:04;;;;;;;25.52;10.45;;;2.60;99.90;;;;;;5018646;28;20094;-89
2022/03/18 02:04:32;;;;;;;18.02;9.65;;;2.50;99.90;;;;;;5021993;28;20037;-88
2022/03/18 02:06:59;;;;;;;18.55;10.68;;;2.40;99.90;;;;;;5014585;28;20038;-89
2022/03/18 02:09:29;;;;;;;18.88;11.32;;;2.30;99.90;;;;;;5035782;28;20036;-87
2022/03/18 02:11:55;;;;;;;23.17;11.25;;;2.30;99.90;;;;;;5036187;28;20140;-89
2022/03/18 02:14:31;;;;;;;17.63;8.80;;;2.20;99.90;;;;;;5016026;28;20060;-89
2022/03/18 02:17:01;;;;;;;24.35;10.05;;;2.10;99.90;;;;;;5037862;28;20071;-88
2022/03/18 02:19:27;;;;;;;21.20;10.65;;;2.20;99.90;;;;;;5041333;28;20751;-88
2022/03/18 02:21:54;;;;;;;26.85;9.98;;;2.10;99.90;;;;;;5022323;28;20060;-88
2022/03/18 02:24:23;;;;;;;23.00;11.32;;;2.20;99.90;;;;;;5036217;28;20099;-87
2022/03/18 02:26:52;;;;;;;20.27;11.00;;;2.10;99.90;;;;;;5019564;28;20033;-87
2022/03/18 02:29:19;;;;;;;22.20;9.48;;;2.20;99.90;;;;;;5017949;28;20036;-89
2022/03/18 02:31:44;;;;;;;22.52;10.77;;;2.20;99.90;;;;;;5017702;28;20076;-88
2022/03/18 02:34:13;;;;;;;20.98;11.25;;;2.10;99.90;;;;;;5019696;28;20582;-89
2022/03/18 02:36:39;;;;;;;22.80;11.30;;;2.20;99.90;;;;;;5021739;28;20044;-88
2022/03/18 02:39:05;;;;;;;24.35;12.02;;;2.20;99.90;;;;;;5036256;28;20045;-88
2022/03/18 02:41:35;;;;;;;25.85;12.35;;;2.40;99.90;;;;;;5033522;28;20041;-88
2022/03/18 02:44:04;;;;;;;23.95;11.68;;;2.30;99.90;;;;;;5044812;28;20033;-88
2022/03/18 02:46:32;;;;;;;24.35;11.98;;;2.60;99.90;;;;;;5020146;28;20126;-87
2022/03/18 02:49:02;;;;;;;23.08;11.90;;;2.60;99.90;;;;;;5037767;28;20103;-89
2022/03/18 02:51:29;;;;;;;20.08;11.68;;;2.70;99.90;;;;;;5037264;28;20067;-89
2022/03/18 02:54:02;;;;;;;22.40;12.13;;;2.70;99.90;;;;;;5020121;28;20067;-88
2022/03/18 02:56:27;;;;;;;25.80;11.85;;;2.70;99.90;;;;;;5020270;28;20415;-88
2022/03/18 02:58:53;;;;;;;22.35;11.50;;;2.70;99.90;;;;;;5034913;28;20056;-88
2022/03/18 03:01:19;;;;;;;23.83;11.27;;;2.80;99.90;;;;;;5036063;28;20055;-89
2022/03/18 03:03:45;;;;;;;23.30;12.00;;;2.70;99.90;;;;;;5019706;28;20044;-89
2022/03/18 03:09:29;;;;;;;24.33;10.98;;;2.70;99.90;;;;;;4979570;28;20046;-88
2022/03/18 03:11:56;;;;;;;16.95;10.80;;;2.80;99.90;;;;;;4978389;28;20394;-89
2022/03/18 03:14:22;;;;;;;17.88;11.10;;;2.70;99.90;;;;;;5016195;28;20469;-89
2022/03/18 03:16:48;;;;;;;18.25;10.90;;;2.70;99.90;;;;;;5011298;28;20048;-88
2022/03/18 03:19:14;;;;;;;25.48;11.13;;;2.60;99.90;;;;;;5020265;28;20028;-88
2022/03/18 03:21:40;;;;;;;22.23;11.30;;;2.70;99.90;;;;;;5018095;28;20412;-88
2022/03/18 03:24:08;;;;;;;23.30;10.77;;;2.70;99.90;;;;;;5037534;28;20056;-90
2022/03/18 03:26:34;;;;;;;20.30;10.90;;;2.60;99.90;;;;;;5021207;28;20487;-89
2022/03/18 03:29:00;;;;;;;19.23;10.75;;;2.80;99.90;;;;;;5015464;28;20448;-89
2022/03/18 03:31:26;;;;;;;20.02;10.30;;;2.60;99.90;;;;;;5038512;28;20049;-89
2022/03/18 03:33:52;;;;;;;29.58;11.15;;;2.70;99.90;;;;;;5042722;28;20094;-88
2022/03/18 03:36:18;;;;;;;21.20;9.77;;;2.70;99.90;;;;;;5021911;28;20339;-88
2022/03/18 03:38:44;;;;;;;19.80;10.30;;;2.80;99.90;;;;;;5020053;28;20474;-88
2022/03/18 03:41:09;;;;;;;23.65;10.57;;;2.90;99.90;;;;;;5020344;28;20079;-89
2022/03/18 03:43:35;;;;;;;18.02;10.27;;;2.90;99.90;;;;;;5021249;28;20044;-88
2022/03/18 03:46:01;;;;;;;17.63;10.55;;;2.80;99.90;;;;;;5022504;28;20048;-89
2022/03/18 03:48:33;;;;;;;20.83;10.68;;;2.80;99.90;;;;;;5036018;28;20041;-89
2022/03/18 03:51:00;;;;;;;19.35;11.10;;;2.80;99.90;;;;;;5020699;28;20128;-89
2022/03/18 03:53:29;;;;;;;14.98;10.77;;;2.80;99.90;;;;;;5021652;28;20055;-89
2022/03/18 03:55:55;;;;;;;21.13;10.50;;;2.80;99.90;;;;;;5023932;28;20045;-89
2022/03/18 03:58:20;;;;;;;22.60;10.48;;;2.80;99.90;;;;;;5039288;28;20046;-89
2022/03/18 04:00:47;;;;;;;16.60;10.13;;;2.80;99.90;;;;;;5037674;28;20213;-90
2022/03/18 04:03:13;;;;;;;16.73;10.60;;;2.80;99.90;;;;;;5023835;28;20272;-89
2022/03/18 04:05:38;;;;;;;19.63;10.35;;;2.90;99.90;;;;;;5023683;28;20401;-89
2022/03/18 04:08:07;;;;;;;21.15;10.40;;;2.80;99.90;;;;;;5023967;28;20382;-89
2022/03/18 04:10:33;;;;;;;21.67;11.00;;;2.80;99.90;;;;;;5020962;28;20095;-89
2022/03/18 04:12:59;;;;;;;22.38;10.55;;;2.70;99.90;;;;;;5022896;28;20044;-89
2022/03/18 04:15:24;;;;;;;17.42;11.30;;;2.90;99.90;;;;;;5025730;28;20443;-89
2022/03/18 04:17:50;;;;;;;20.13;10.65;;;2.90;99.90;;;;;;5039818;28;20045;-90
2022/03/18 04:20:43;;;;;;;23.58;10.30;;;2.90;99.90;;;;;;5024266;28;20037;-90
2022/03/18 04:23:12;;;;;;;18.45;10.15;;;2.90;99.90;;;;;;5033332;28;20487;-89
2022/03/18 04:25:40;;;;;;;19.55;9.85;;;3.10;99.90;;;;;;5021200;28;20065;-90
2022/03/18 04:28:09;;;;;;;21.33;10.27;;;3.00;99.90;;;;;;5019958;28;20045;-90
2022/03/18 04:30:39;;;;;;;18.73;10.60;;;3.00;99.90;;;;;;5040336;28;20328;-90
2022/03/18 04:33:07;;;;;;;21.33;10.13;;;3.00;99.90;;;;;;5041441;28;20076;-90
2022/03/18 04:35:33;;;;;;;20.00;10.80;;;3.00;99.90;;;;;;5038463;28;20492;-90
2022/03/18 04:38:02;;;;;;;19.58;10.32;;;3.00;99.90;;;;;;5008031;28;20040;-90
2022/03/18 04:40:28;;;;;;;20.40;11.23;;;3.10;99.90;;;;;;5023762;28;20605;-90
2022/03/18 04:42:54;;;;;;;18.48;10.57;;;3.10;99.90;;;;;;5022531;28;20032;-90
2022/03/18 04:45:26;;;;;;;17.25;10.60;;;3.00;99.90;;;;;;5025173;28;20116;-89
2022/03/18 04:47:55;;;;;;;19.30;10.95;;;2.90;99.90;;;;;;5035780;28;20053;-89
2022/03/18 04:50:21;;;;;;;19.08;10.88;;;2.90;99.90;;;;;;5022139;28;20037;-89
2022/03/18 04:52:48;;;;;;;22.10;11.07;;;3.00;99.90;;;;;;5023417;28;20075;-90
2022/03/18 04:55:13;;;;;;;18.95;10.00;;;2.90;99.90;;;;;;5053309;28;20049;-89
2022/03/18 04:57:39;;;;;;;13.23;9.90;;;2.80;99.90;;;;;;5022811;28;20874;-90
2022/03/18 05:00:09;;;;;;;15.13;9.98;;;2.70;99.90;;;;;;5018013;28;20227;-89
2022/03/18 05:02:36;;;;;;;13.73;9.13;;;2.70;99.90;;;;;;5024396;28;20633;-90
2022/03/18 05:05:03;;;;;;;14.60;9.77;;;2.50;99.90;;;;;;5022977;28;20086;-89
2022/03/18 05:07:31;;;;;;;15.27;9.38;;;2.60;99.90;;;;;;5038767;28;20033;-89
2022/03/18 05:09:57;;;;;;;16.83;9.93;;;2.50;99.90;;;;;;5024523;28;20132;-89
2022/03/18 05:12:31;;;;;;;14.07;9.95;;;2.60;99.90;;;;;;5022787;28;20427;-89
2022/03/18 05:14:57;;;;;;;15.37;9.83;;;2.40;99.90;;;;;;5024655;28;20040;-90
2022/03/18 05:17:23;;;;;;;19.73;10.65;;;2.40;99.90;;;;;;5023616;28;20382;-90
2022/03/18 05:19:48;;;;;;;17.15;10.73;;;2.50;99.90;;;;;;5023305;28;20120;-89
2022/03/18 05:22:17;;;;;;;19.17;11.27;;;2.50;99.90;;;;;;5036100;28;20526;-88
2022/03/18 05:24:43;;;;;;;18.52;12.40;;;2.40;99.90;;;;;;5038269;28;20060;-89
2022/03/18 05:27:08;;;;;;;17.75;11.93;;;2.50;99.90;;;;;;5021880;28;20039;-89
2022/03/18 05:29:35;;;;;;;19.55;13.15;;;2.50;99.90;;;;;;5040690;28;20068;-87
2022/03/18 05:32:02;;;;;;;17.08;12.20;;;2.40;99.90;;;;;;5032344;28;20216;-90
2022/03/18 05:34:28;;;;;;;20.38;13.65;;;2.50;99.90;;;;;;5019644;28;20102;-90
2022/03/18 05:36:57;;;;;;;22.17;12.75;;;2.50;99.90;;;;;;5039066;28;20044;-89
2022/03/18 05:39:23;;;;;;;18.70;13.57;;;2.50;99.90;;;;;;5023143;28;20158;-89
2022/03/18 05:41:49;;;;;;;20.77;13.10;;;2.50;99.90;;;;;;5038574;28;20120;-89
2022/03/18 05:44:15;;;;;;;17.83;13.00;;;2.30;99.90;;;;;;5038475;28;20182;-89
2022/03/18 05:46:40;;;;;;;21.65;13.80;;;2.30;99.90;;;;;;5021520;28;20093;-90
2022/03/18 05:49:07;;;;;;;23.98;14.55;;;2.20;99.90;;;;;;5038378;28;20112;-89
2022/03/18 05:51:35;;;;;;;17.52;12.57;;;2.20;99.90;;;;;;5051633;28;20060;-90
2022/03/18 05:54:01;;;;;;;23.20;13.60;;;2.30;99.90;;;;;;5035232;28;20038;-90
2022/03/18 05:59:16;;;;;;;22.23;13.57;;;2.20;99.90;;;;;;5030862;28;20088;-89
2022/03/18 06:01:43;;;;;;;23.60;14.38;;;2.20;99.90;;;;;;5017031;28;20101;-89
2022/03/18 06:04:10;;;;;;;21.85;15.38;;;2.10;99.90;;;;;;5038104;28;20111;-88
2022/03/18 06:06:39;;;;;;;21.90;17.20;;;2.30;99.90;;;;;;5019760;28;20048;-88
2022/03/18 06:11:53;;;;;;;19.13;12.15;;;2.10;99.90;;;;;;5034507;28;20531;-89
2022/03/18 06:14:24;;;;;;;19.08;12.77;;;2.30;99.90;;;;;;5036487;28;20049;-90
2022/03/18 06:16:53;;;;;;;19.88;13.15;;;2.20;99.90;;;;;;5020151;28;20044;-89
2022/03/18 06:19:25;;;;;;;17.90;12.27;;;2.20;99.90;;;;;;5035984;28;20049;-89
2022/03/18 06:21:51;;;;;;;19.38;12.88;;;2.00;99.90;;;;;;5020527;28;20132;-89
2022/03/18 06:24:18;;;;;;;21.15;13.60;;;2.20;99.90;;;;;;5037307;28;20135;-89
2022/03/18 06:26:43;;;;;;;24.77;16.00;;;2.20;99.90;;;;;;5021575;28;20075;-89
2022/03/18 06:29:09;;;;;;;22.23;13.45;;;2.30;99.90;;;;;;5020491;28;20064;-89
2022/03/18 06:31:38;;;;;;;19.23;13.32;;;2.20;99.90;;;;;;5022103;28;20040;-88
2022/03/18 06:34:11;;;;;;;18.55;12.48;;;2.40;99.90;;;;;;5034122;28;20079;-89
2022/03/18 06:36:43;;;;;;;24.20;15.45;;;2.40;99.90;;;;;;5034774;28;20048;-89
2022/03/18 06:39:09;;;;;;;24.45;13.65;;;2.60;99.90;;;;;;5021998;28;20040;-90
2022/03/18 06:41:35;;;;;;;17.40;12.88;;;2.50;99.90;;;;;;5013335;28;20396;-89
2022/03/18 06:44:01;;;;;;;22.48;15.38;;;2.60;99.90;;;;;;5021926;28;20068;-89
2022/03/18 06:46:28;;;;;;;23.75;13.60;;;2.60;99.90;;;;;;5021407;28;20037;-90
2022/03/18 06:48:53;;;;;;;17.35;11.73;;;2.60;99.90;;;;;;5021721;28;20115;-89
2022/03/18 06:51:20;;;;;;;19.95;13.85;;;2.80;99.90;;;;;;5038918;28;20124;-89
2022/03/18 06:53:46;;;;;;;18.25;12.13;;;2.80;99.90;;;;;;5020973;28;20045;-89
2022/03/18 06:56:14;;;;;;;24.45;15.27;;;2.90;99.90;;;;;;5020732;28;20059;-90
2022/03/18 06:58:40;;;;;;;25.02;15.40;;;3.00;99.90;;;;;;5031129;28;20041;-88
2022/03/18 07:01:13;;;;;;;24.65;15.50;;;3.10;99.90;;;;;;5020612;28;20044;-90
2022/03/18 07:03:39;;;;;;;26.25;16.00;;;3.20;99.90;;;;;;5039292;28;20523;-90
2022/03/18 07:06:08;;;;;;;23.25;15.73;;;3.40;99.90;;;;;;5022786;28;20033;-89
2022/03/18 07:08:39;;;;;;;23.35;16.88;;;3.50;99.90;;;;;;5013337;28;20108;-89
2022/03/18 07:11:06;;;;;;;23.85;16.42;;;3.70;99.90;;;;;;5018238;28;20106;-91
2022/03/18 07:13:32;;;;;;;29.25;17.60;;;3.80;99.90;;;;;;5018498;28;20041;-90
2022/03/18 07:18:45;;;;;;;24.70;17.30;;;4.00;99.90;;;;;;5034738;28;20041;-89
2022/03/18 07:21:14;;;;;;;23.85;17.63;;;4.10;99.90;;;;;;5037891;28;20047;-90
2022/03/18 07:23:43;;;;;;;26.08;17.52;;;4.30;99.90;;;;;;5022193;28;20037;-89
2022/03/18 07:26:08;;;;;;;26.25;17.77;;;4.40;99.90;;;;;;5038144;28;20041;-90
2022/03/18 07:28:53;;;;;;;27.38;18.02;;;4.50;99.90;;;;;;5041571;28;20602;-87
2022/03/18 07:31:24;;;;;;;26.70;17.90;;;4.70;99.90;;;;;;5024605;28;20045;-89
2022/03/18 07:33:56;;;;;;;25.38;19.20;;;4.80;99.90;;;;;;5025333;28;20127;-89
2022/03/18 07:36:24;;;;;;;26.20;18.92;;;5.10;99.90;;;;;;5035545;28;20162;-88
2022/03/18 07:38:58;;;;;;;25.20;18.40;;;5.20;99.90;;;;;;5025647;28;20053;-89
2022/03/18 07:41:24;;;;;;;31.17;20.10;;;5.30;99.90;;;;;;5044411;28;20885;-88
2022/03/18 07:43:49;;;;;;;22.95;17.90;;;5.50;99.90;;;;;;5017725;28;20042;-89
2022/03/18 07:46:16;;;;;;;27.30;18.85;;;5.60;99.90;;;;;;5014856;28;20750;-89
2022/03/18 07:48:44;;;;;;;27.10;18.70;;;5.80;99.90;;;;;;5024865;28;20048;-89
2022/03/18 07:51:10;;;;;;;25.77;17.38;;;5.90;99.90;;;;;;5039514;28;20052;-89
2022/03/18 07:53:36;;;;;;;24.33;18.80;;;6.10;99.90;;;;;;5024780;28;20376;-89
2022/03/18 07:56:08;;;;;;;26.60;17.95;;;6.20;99.90;;;;;;5039014;28;20042;-89
2022/03/18 07:58:37;;;;;;;29.27;19.30;;;6.40;99.90;;;;;;5025540;28;20537;-88
2022/03/18 08:01:05;;;;;;;26.10;19.00;;;6.50;99.90;;;;;;5022447;28;20041;-88
2022/03/18 08:03:31;;;;;;;27.92;18.42;;;6.70;99.90;;;;;;5039833;28;20037;-88
2022/03/18 08:06:03;;;;;;;25.85;17.25;;;6.80;99.90;;;;;;5022798;28;20033;-88
2022/03/18 08:08:31;;;;;;;26.92;19.08;;;6.90;99.90;;;;;;5039410;28;20037;-88
2022/03/18 08:11:04;;;;;;;27.70;16.92;;;7.10;99.90;;;;;;5024492;28;20341;-88
2022/03/18 08:13:30;;;;;;;30.40;16.48;;;7.20;99.90;;;;;;5036263;28;20033;-88
2022/03/18 08:15:56;;;;;;;25.73;16.38;;;7.30;99.90;;;;;;5044944;28;20110;-88
2022/03/18 08:18:22;;;;;;;25.58;16.92;;;7.40;99.90;;;;;;5021156;28;20638;-88
2022/03/18 08:20:51;;;;;;;29.10;18.33;;;7.40;99.90;;;;;;5020986;28;20068;-88
2022/03/18 08:23:20;;;;;;;28.30;18.20;;;7.60;99.90;;;;;;5021830;28;20667;-89
2022/03/18 08:25:46;;;;;;;29.65;18.35;;;7.80;99.90;;;;;;5038430;28;20032;-88
2022/03/18 08:28:12;;;;;;;28.80;18.15;;;8.00;99.90;;;;;;5021017;28;20044;-88
2022/03/18 08:30:39;;;;;;;28.35;17.67;;;8.10;99.90;;;;;;5018542;28;20036;-89
2022/03/18 08:33:06;;;;;;;29.95;18.67;;;8.20;99.90;;;;;;5033435;28;20144;-89
2022/03/18 08:35:32;;;;;;;23.17;16.30;;;8.30;99.90;;;;;;5022737;28;20107;-89
2022/03/18 08:37:58;;;;;;;29.08;15.50;;;8.30;99.90;;;;;;5023387;28;20045;-88
2022/03/18 08:40:34;;;;;;;25.02;16.27;;;8.40;99.90;;;;;;5021969;28;20052;-88
2022/03/18 08:43:08;;;;;;;26.42;16.85;;;8.50;99.90;;;;;;5021426;28;20041;-88
2022/03/18 08:45:34;;;;;;;21.10;14.60;;;8.60;99.90;;;;;;5020621;28;20120;-89
2022/03/18 08:48:00;;;;;;;23.25;16.13;;;8.70;99.90;;;;;;5020238;28;20469;-89
2022/03/18 08:50:26;;;;;;;29.17;14.48;;;9.00;99.90;;;;;;5037369;28;20051;-89
2022/03/18 08:52:54;;;;;;;22.48;15.02;;;9.00;99.90;;;;;;5039870;28;20302;-89
2022/03/18 08:55:23;;;;;;;26.23;15.55;;;9.10;99.90;;;;;;5023304;28;20049;-89
2022/03/18 08:57:50;;;;;;;24.80;14.90;;;9.20;99.90;;;;;;5022214;28;20041;-88
2022/03/18 09:00:24;;;;;;;21.52;13.93;;;9.30;99.90;;;;;;5032814;28;20284;-89
2022/03/18 09:02:53;;;;;;;23.27;14.98;;;9.30;99.90;;;;;;5020986;28;20037;-89
2022/03/18 09:05:22;;;;;;;18.98;13.10;;;9.70;99.90;;;;;;5043770;28;20033;-89
2022/03/18 09:07:48;;;;;;;27.58;13.85;;;9.80;99.90;;;;;;5039302;28;20037;-90
2022/03/18 09:10:14;;;;;;;25.23;14.52;;;9.70;99.90;;;;;;5022835;28;20055;-90
2022/03/18 09:12:56;;;;;;;25.35;14.05;;;9.80;99.90;;;;;;5019577;28;20048;-89
2022/03/18 09:15:33;;;;;;;24.17;14.38;;;10.00;99.90;;;;;;5032453;28;20037;-89
2022/03/18 09:18:04;;;;;;;25.27;13.45;;;10.10;99.90;;;;;;5038586;28;20029;-89
2022/03/18 09:20:33;;;;;;;21.98;13.48;;;10.30;99.90;;;;;;5022345;28;22138;-90
2022/03/18 09:23:08;;;;;;;20.80;13.40;;;10.10;99.90;;;;;;5038131;28;20195;-90
2022/03/18 09:25:34;;;;;;;26.83;14.25;;;10.20;99.90;;;;;;5022298;28;20179;-88
2022/03/18 09:28:00;;;;;;;25.10;14.07;;;10.30;99.90;;;;;;5017120;28;20083;-89
2022/03/18 09:30:26;;;;;;;21.35;13.38;;;10.40;99.90;;;;;;5025687;28;20033;-89
2022/03/18 09:32:51;;;;;;;24.45;13.85;;;10.50;99.90;;;;;;5034337;28;20134;-88
2022/03/18 09:35:17;;;;;;;22.00;13.50;;;10.50;99.90;;;;;;5022797;28;20040;-89
2022/03/18 09:37:49;;;;;;;24.45;14.20;;;10.80;99.90;;;;;;5021552;28;20037;-89
2022/03/18 09:40:21;;;;;;;24.95;13.85;;;11.10;99.90;;;;;;5023362;28;20377;-90
2022/03/18 09:42:55;;;;;;;29.95;13.18;;;11.20;99.90;;;;;;5036408;28;20108;-90
2022/03/18 09:45:32;;;;;;;21.98;12.52;;;11.30;99.90;;;;;;5017652;28;20171;-90
2022/03/18 09:48:06;;;;;;;21.83;10.63;;;11.20;99.90;;;;;;5018377;28;20465;-89
2022/03/18 09:50:40;;;;;;;25.05;12.07;;;11.40;99.90;;;;;;5023017;28;20025;-90
2022/03/18 09:53:08;;;;;;;22.75;10.50;;;11.70;99.90;;;;;;5037418;28;20121;-90
2022/03/18 09:55:39;;;;;;;20.63;9.98;;;11.90;99.90;;;;;;5024395;28;20044;-89
2022/03/18 09:58:05;;;;;;;21.50;10.35;;;12.00;99.90;;;;;;5021466;28;20037;-89
2022/03/18 10:00:33;;;;;;;21.23;10.07;;;12.10;99.90;;;;;;5013152;28;20045;-89
2022/03/18 10:03:11;;;;;;;17.67;9.82;;;12.00;99.90;;;;;;5022204;28;20049;-90
2022/03/18 10:05:58;;;;;;;20.02;10.43;;;12.30;99.90;;;;;;5036778;28;20104;-90
2022/03/18 10:08:53;;;;;;;21.50;9.45;;;12.50;99.90;;;;;;5022709;28;20333;-89
2022/03/18 10:11:27;;;;;;;19.77;9.57;;;12.50;99.90;;;;;;5020555;28;20037;-92
2022/03/18 10:14:16;;;;;;;21.40;10.07;;;12.20;99.90;;;;;;5035419;28;20253;-90
2022/03/18 10:16:47;;;;;;;19.63;9.23;;;12.10;99.90;;;;;;5018444;28;20033;-89
2022/03/18 10:19:21;;;;;;;19.85;9.15;;;12.30;99.90;;;;;;5019737;28;20113;-89
2022/03/18 10:22:06;;;;;;;18.30;9.30;;;12.20;99.90;;;;;;5021714;28;20195;-89
2022/03/18 10:24:38;;;;;;;20.13;9.95;;;12.50;99.90;;;;;;5020171;28;20048;-89
2022/03/18 10:27:14;;;;;;;20.27;10.25;;;12.70;99.90;;;;;;5018322;28;20132;-90
2022/03/18 10:29:42;;;;;;;20.23;9.93;;;12.90;96.10;;;;;;5020038;28;20139;-89
2022/03/18 10:32:11;;;;;;;21.70;10.25;;;12.50;97.50;;;;;;5021416;28;20273;-89
2022/03/18 10:37:32;;;;;;;19.17;10.68;;;12.80;99.90;;;;;;5033758;28;20139;-89
2022/03/18 10:40:01;;;;;;;20.60;10.60;;;12.60;99.90;;;;;;5019570;28;20507;-89
2022/03/18 10:42:30;;;;;;;25.23;11.27;;;12.70;99.90;;;;;;5019347;28;20071;-89
2022/03/18 10:45:06;;;;;;;20.13;10.35;;;12.80;99.90;;;;;;5022856;28;20504;-89
2022/03/18 10:47:45;;;;;;;19.20;10.90;;;12.50;57.60;;;;;;5019305;28;20037;-89
2022/03/18 10:50:15;;;;;;;26.55;11.63;;;12.60;79.40;;;;;;5021296;28;20489;-88
2022/03/18 10:52:40;;;;;;;20.20;10.25;;;13.10;80.90;;;;;;5015888;28;20079;-89
2022/03/18 10:55:23;;;;;;;18.05;10.50;;;13.40;95.70;;;;;;5021584;28;20147;-89
2022/03/18 10:57:53;;;;;;;20.00;10.32;;;13.40;89.70;;;;;;5022912;28;20075;-91
2022/03/18 11:00:35;;;;;;;19.95;10.15;;;13.20;69.10;;;;;;5017939;28;20044;-89
2022/03/18 11:03:06;;;;;;;20.73;11.20;;;13.50;90.00;;;;;;5026308;28;20458;-90
2022/03/18 11:05:36;;;;;;;17.70;9.65;;;13.90;18.70;;;;;;5025557;28;20044;-88
2022/03/18 11:08:05;;;;;;;22.52;10.10;;;14.00;1.00;;;;;;5025033;28;20041;-90
2022/03/18 11:14:10;;;;;;;17.08;9.73;;;14.40;1.00;;;;;;4955023;28;20241;-89
2022/03/18 11:16:47;;;;;;;19.30;10.50;;;13.70;1.00;;;;;;5013147;28;20045;-91
2022/03/18 11:19:16;;;;;;;22.02;9.85;;;13.90;1.00;;;;;;5021714;28;20041;-89
2022/03/18 11:21:49;;;;;;;16.88;8.80;;;13.90;1.00;;;;;;5021154;28;20051;-89
2022/03/18 11:24:36;;;;;;;20.92;9.82;;;14.40;1.00;;;;;;5022059;28;20049;-90
2022/03/18 11:27:07;;;;;;;17.48;9.27;;;14.60;1.00;;;;;;5023064;28;20091;-89
2022/03/18 11:29:38;;;;;;;19.15;9.10;;;14.10;99.90;;;;;;5021445;28;20041;-90
2022/03/18 11:32:12;;;;;;;19.05;8.55;;;14.70;1.00;;;;;;5020447;28;20128;-90
2022/03/18 11:35:01;;;;;;;20.02;8.45;;;14.20;99.90;;;;;;5023953;28;20033;-89
2022/03/18 11:37:30;;;;;;;15.95;8.55;;;14.50;99.90;;;;;;5026125;28;20040;-91
2022/03/18 11:40:27;;;;;;;15.23;8.55;;;14.90;99.90;;;;;;5019354;28;20037;-89
2022/03/18 11:42:57;;;;;;;16.67;8.20;;;15.10;99.90;;;;;;5019539;28;20044;-90
2022/03/18 11:45:42;;;;;;;14.07;6.47;;;14.90;99.90;;;;;;5024219;28;20041;-90
2022/03/18 11:48:37;;;;;;;11.55;6.13;;;15.00;86.80;;;;;;5025237;28;20367;-88
2022/03/18 11:51:37;;;;;;;12.63;6.22;;;15.30;99.90;;;;;;5023802;28;20037;-90
2022/03/18 11:54:15;;;;;;;15.25;6.85;;;15.30;1.00;;;;;;5042705;28;20050;-90
2022/03/18 11:57:05;;;;;;;15.63;7.03;;;15.00;98.10;;;;;;5021871;28;20040;-90
2022/03/18 11:59:49;;;;;;;16.05;6.57;;;15.10;99.90;;;;;;5022508;28;20045;-90
2022/03/18 12:02:18;;;;;;;12.82;6.88;;;15.80;97.10;;;;;;5023588;28;20037;-90
2022/03/18 12:04:49;;;;;;;18.48;8.18;;;15.80;1.00;;;;;;5025672;28;20040;-90
2022/03/18 12:07:37;;;;;;;14.55;7.65;;;15.90;16.80;;;;;;5033398;28;20136;-87
2022/03/18 12:10:02;;;;;;;17.08;7.45;;;16.40;99.90;;;;;;5023600;28;20109;-90
2022/03/18 12:12:32;;;;;;;15.77;7.25;;;16.00;99.90;;;;;;5021432;28;20109;-89
2022/03/18 12:15:08;;;;;;;12.95;6.53;;;16.60;99.90;;;;;;5020932;28;20468;-89
2022/03/18 12:17:54;;;;;;;15.93;5.65;;;16.30;99.90;;;;;;5020255;28;20582;-90
2022/03/18 12:20:25;;;;;;;12.75;5.43;;;16.20;99.90;;;;;;5022873;28;20037;-90
2022/03/18 12:22:52;;;;;;;11.68;5.60;;;16.00;99.90;;;;;;5057693;28;20048;-89
2022/03/18 12:25:20;;;;;;;12.80;6.38;;;15.80;99.90;;;;;;5022342;28;20049;-91
2022/03/18 12:27:55;;;;;;;12.75;6.63;;;16.50;99.90;;;;;;5040106;28;20063;-90
2022/03/18 12:30:24;;;;;;;15.05;6.85;;;15.40;1.00;;;;;;5021672;28;20091;-91
2022/03/18 12:33:00;;;;;;;14.35;6.70;;;15.40;1.00;;;;;;5022910;28;20056;-89
2022/03/18 12:35:36;;;;;;;16.35;6.43;;;16.50;1.00;;;;;;5023473;28;20033;-90
2022/03/18 12:38:14;;;;;;;12.73;5.75;;;17.00;99.90;;;;;;5038161;28;20099;-90
2022/03/18 12:40:56;;;;;;;16.08;6.20;;;17.40;99.90;;;;;;5022110;28;20041;-90
2022/03/18 12:43:34;;;;;;;12.43;6.07;;;17.40;99.90;;;;;;5031527;28;20519;-89
2022/03/18 12:46:14;;;;;;;13.50;5.80;;;17.00;99.90;;;;;;5024073;28;20072;-89
2022/03/18 12:48:49;;;;;;;13.57;6.47;;;15.90;99.90;;;;;;5017445;28;20782;-89
2022/03/18 12:51:18;;;;;;;14.32;7.05;;;16.90;99.90;;;;;;5034882;28;20092;-90
2022/03/18 12:53:48;;;;;;;14.13;7.13;;;17.20;99.90;;;;;;5023871;28;20400;-89
2022/03/18 12:56:19;;;;;;;14.25;6.35;;;17.10;99.90;;;;;;5034207;28;20045;-89
2022/03/18 12:58:47;;;;;;;13.13;5.72;;;17.40;99.90;;;;;;5022861;28;20048;-90
2022/03/18 13:01:20;;;;;;;10.98;5.93;;;17.10;99.90;;;;;;5023669;28;20446;-91
2022/03/18 13:03:55;;;;;;;11.48;5.22;;;17.60;99.90;;;;;;5023990;28;20045;-90
2022/03/18 13:06:27;;;;;;;12.85;5.35;;;17.70;6.30;;;;;;5022372;28;20039;-90
2022/03/18 13:09:09;;;;;;;14.23;5.78;;;18.10;1.00;;;;;;5022785;28;20128;-90
2022/03/18 13:11:39;;;;;;;12.63;5.38;;;18.30;1.00;;;;;;5024583;28;20245;-91